AAL1893 KBOS-KDCA
Flight info
| Callsign | AAL1893 |
|---|---|
| Flight time | N/A |
| Altitude | 36000 |
| Route | SSOXS7 SSOXS Q167 ZIZZI KNUKK ATR LAFLN DEALE3 |
| Aircraft | A319/M-SDE3FGHIRWY/LB1 |
Departure
| Time | 2026-05-08 01:41 |
|---|---|
| Airport | Boston Logan International Airport (KBOS) |
Arrival
| Time | N/A |
|---|---|
| Airport | Ronald Reagan Washington National Airport (KDCA) |
| Time | Latitude | Longitude | Altitude | Speed | Heading |
|---|---|---|---|---|---|
| 2026-05-08 01:12 | 42.36101 | -71.01979 | 26 ft | 0 kts | 78° |
| 2026-05-08 01:25 | 42.36098 | -71.02001 | 29 ft | 4 kts | 78° |
| 2026-05-08 01:25 | 42.36094 | -71.02030 | 25 ft | 4 kts | 69° |
| 2026-05-08 01:25 | 42.36077 | -71.02054 | 31 ft | 4 kts | 24° |
| 2026-05-08 01:26 | 42.36057 | -71.02066 | 31 ft | 4 kts | 38° |
| 2026-05-08 01:26 | 42.36044 | -71.02093 | 31 ft | 4 kts | 98° |
| 2026-05-08 01:26 | 42.36053 | -71.02124 | 29 ft | 4 kts | 121° |
| 2026-05-08 01:26 | 42.36067 | -71.02156 | 30 ft | 4 kts | 121° |
| 2026-05-08 01:27 | 42.36078 | -71.02180 | 29 ft | 4 kts | 121° |
| 2026-05-08 01:27 | 42.36081 | -71.02187 | 30 ft | 0 kts | 121° |
| 2026-05-08 01:29 | 42.36074 | -71.02172 | 30 ft | 4 kts | 121° |
| 2026-05-08 01:30 | 42.36052 | -71.02121 | 29 ft | 8 kts | 121° |
| 2026-05-08 01:30 | 42.36014 | -71.02036 | 30 ft | 13 kts | 121° |
| 2026-05-08 01:30 | 42.35963 | -71.01920 | 25 ft | 16 kts | 121° |
| 2026-05-08 01:30 | 42.35911 | -71.01764 | 26 ft | 20 kts | 99° |
| 2026-05-08 01:31 | 42.35890 | -71.01618 | 25 ft | 12 kts | 102° |
| 2026-05-08 01:31 | 42.35832 | -71.01570 | 30 ft | 11 kts | 175° |
| 2026-05-08 01:31 | 42.35794 | -71.01514 | 28 ft | 9 kts | 106° |
| 2026-05-08 01:31 | 42.35772 | -71.01423 | 28 ft | 12 kts | 110° |
| 2026-05-08 01:32 | 42.35743 | -71.01309 | 26 ft | 9 kts | 99° |
| 2026-05-08 01:32 | 42.35775 | -71.01250 | 28 ft | 7 kts | 19° |
| 2026-05-08 01:32 | 42.35829 | -71.01227 | 25 ft | 10 kts | 19° |
| 2026-05-08 01:32 | 42.35903 | -71.01191 | 27 ft | 13 kts | 20° |
| 2026-05-08 01:33 | 42.36001 | -71.01144 | 28 ft | 17 kts | 19° |
| 2026-05-08 01:33 | 42.36115 | -71.01089 | 27 ft | 18 kts | 20° |
| 2026-05-08 01:33 | 42.36207 | -71.01021 | 25 ft | 12 kts | 66° |
| 2026-05-08 01:33 | 42.36181 | -71.00911 | 27 ft | 13 kts | 114° |
| 2026-05-08 01:34 | 42.36139 | -71.00784 | 27 ft | 16 kts | 114° |
| 2026-05-08 01:34 | 42.36097 | -71.00627 | 29 ft | 20 kts | 109° |
| 2026-05-08 01:34 | 42.36049 | -71.00443 | 27 ft | 21 kts | 109° |
| 2026-05-08 01:34 | 42.36002 | -71.00254 | 25 ft | 21 kts | 109° |
| 2026-05-08 01:35 | 42.35946 | -71.00076 | 29 ft | 18 kts | 125° |
| 2026-05-08 01:35 | 42.35878 | -70.99979 | 25 ft | 13 kts | 135° |
| 2026-05-08 01:35 | 42.35815 | -70.99894 | 27 ft | 13 kts | 135° |
| 2026-05-08 01:35 | 42.35752 | -70.99810 | 27 ft | 13 kts | 135° |
| 2026-05-08 01:36 | 42.35687 | -70.99724 | 25 ft | 13 kts | 135° |
| 2026-05-08 01:36 | 42.35622 | -70.99637 | 25 ft | 13 kts | 135° |
| 2026-05-08 01:36 | 42.35561 | -70.99553 | 27 ft | 12 kts | 135° |
| 2026-05-08 01:36 | 42.35523 | -70.99503 | 27 ft | 0 kts | 135° |
| 2026-05-08 01:37 | 42.35522 | -70.99502 | 26 ft | 1 kts | 135° |
| 2026-05-08 01:37 | 42.35512 | -70.99489 | 25 ft | 4 kts | 135° |
| 2026-05-08 01:37 | 42.35488 | -70.99432 | 25 ft | 9 kts | 102° |
| 2026-05-08 01:37 | 42.35494 | -70.99379 | 29 ft | 1 kts | 75° |
| 2026-05-08 01:38 | 42.35494 | -70.99376 | 28 ft | 0 kts | 75° |
| 2026-05-08 01:38 | 42.35496 | -70.99368 | 25 ft | 3 kts | 75° |
| 2026-05-08 01:39 | 42.35504 | -70.99324 | 27 ft | 7 kts | 76° |
| 2026-05-08 01:39 | 42.35549 | -70.99284 | 25 ft | 11 kts | 346° |
| 2026-05-08 01:39 | 42.35582 | -70.99322 | 25 ft | 0 kts | 315° |
| 2026-05-08 01:40 | 42.35585 | -70.99327 | 25 ft | 2 kts | 315° |
| 2026-05-08 01:40 | 42.35746 | -70.99543 | 26 ft | 76 kts | 315° |
| 2026-05-08 01:41 | 42.36316 | -71.00316 | 27 ft | 152 kts | 315° |
| 2026-05-08 01:41 | 42.37114 | -71.01371 | 604 ft | 165 kts | 314° |
| 2026-05-08 01:41 | 42.37971 | -71.02527 | 1257 ft | 181 kts | 313° |
| 2026-05-08 01:41 | 42.38769 | -71.03869 | 1921 ft | 186 kts | 298° |
| 2026-05-08 01:42 | 42.39357 | -71.05514 | 2464 ft | 203 kts | 297° |
| 2026-05-08 01:42 | 42.40040 | -71.07323 | 2906 ft | 228 kts | 297° |
| 2026-05-08 01:42 | 42.40708 | -71.09369 | 3618 ft | 244 kts | 284° |
| 2026-05-08 01:42 | 42.40572 | -71.11690 | 4491 ft | 257 kts | 252° |
| 2026-05-08 01:43 | 42.39720 | -71.13837 | 5502 ft | 263 kts | 238° |
| 2026-05-08 01:43 | 42.38624 | -71.15833 | 6505 ft | 267 kts | 234° |
| 2026-05-08 01:43 | 42.37391 | -71.17733 | 7467 ft | 272 kts | 223° |
| 2026-05-08 01:43 | 42.36143 | -71.18791 | 8211 ft | 278 kts | 207° |